createdAt,value
2022-08-20T00:00:44.420Z,22.21
2022-08-20T00:05:52.374Z,22.45
2022-08-20T00:11:02.429Z,22.43
2022-08-20T00:16:09.063Z,22.21
2022-08-20T00:21:18.791Z,22.45
2022-08-20T00:26:23.975Z,22.39
2022-08-20T00:31:29.336Z,22.21
2022-08-20T00:36:33.376Z,22.13
2022-08-20T00:41:37.524Z,21.88
2022-08-20T00:46:44.773Z,21.94
2022-08-20T00:51:54.566Z,21.85
2022-08-20T00:57:03.603Z,21.27
2022-08-20T01:02:12.932Z,21.28
2022-08-20T01:07:20.543Z,21.57
2022-08-20T01:12:25.210Z,21.72
2022-08-20T01:17:34.085Z,21.22
2022-08-20T01:23:00.322Z,20.96
2022-08-20T01:28:06.840Z,20.98
2022-08-20T01:33:11.547Z,21.14
2022-08-20T01:38:15.607Z,21.00
2022-08-20T01:43:21.438Z,21.16
2022-08-20T01:48:27.385Z,21.16
2022-08-20T01:53:34.363Z,21.18
2022-08-20T01:58:42.401Z,21.35
2022-08-20T02:03:46.394Z,21.25
2022-08-20T02:08:51.283Z,20.90
2022-08-20T02:13:58.426Z,20.91
2022-08-20T02:19:09.472Z,21.18
2022-08-20T02:24:13.651Z,21.14
2022-08-20T02:29:19.567Z,20.81
2022-08-20T02:34:23.594Z,20.41
2022-08-20T02:39:28.004Z,20.74
2022-08-20T02:44:33.753Z,20.73
2022-08-20T02:49:37.802Z,20.83
2022-08-20T02:54:42.023Z,21.02
2022-08-20T02:59:47.820Z,20.88
2022-08-20T03:04:51.835Z,20.94
2022-08-20T03:09:55.833Z,20.97
2022-08-20T03:15:01.272Z,20.80
2022-08-20T03:20:07.406Z,20.02
2022-08-20T03:25:12.794Z,20.27
2022-08-20T03:30:19.664Z,20.13
2022-08-20T03:35:27.127Z,20.48
2022-08-20T03:40:35.101Z,20.54
2022-08-20T03:45:42.760Z,20.34
2022-08-20T03:50:48.540Z,20.31
2022-08-20T03:55:58.230Z,20.03
2022-08-20T04:01:09.051Z,20.21
2022-08-20T04:06:32.399Z,20.48
2022-08-20T04:11:37.369Z,20.36
2022-08-20T04:16:43.894Z,20.34
2022-08-20T04:21:49.963Z,20.52
2022-08-20T04:26:55.076Z,20.45
2022-08-20T04:32:00.747Z,20.29
2022-08-20T04:37:17.356Z,20.34
2022-08-20T04:42:21.587Z,20.32
2022-08-20T04:47:34.687Z,20.34
2022-08-20T04:52:39.136Z,20.48
2022-08-20T04:57:43.355Z,20.70
2022-08-20T05:02:49.348Z,20.88
2022-08-20T05:07:53.453Z,21.02
2022-08-20T05:12:57.698Z,21.06
2022-08-20T05:18:08.115Z,21.15
2022-08-20T05:23:14.644Z,21.31
2022-08-20T05:28:22.223Z,21.84
2022-08-20T05:33:28.539Z,22.01
2022-08-20T05:38:35.088Z,21.92
2022-08-20T05:43:39.154Z,22.11
2022-08-20T05:48:44.780Z,22.36
2022-08-20T05:53:48.899Z,22.56
2022-08-20T05:58:53.255Z,22.54
2022-08-20T06:04:15.803Z,22.71
2022-08-20T06:09:31.898Z,23.07
2022-08-20T06:14:37.195Z,23.00
2022-08-20T06:19:44.402Z,22.95
2022-08-20T06:24:48.694Z,23.09
2022-08-20T06:29:53.488Z,23.37
2022-08-20T06:34:59.114Z,23.61
2022-08-20T06:40:09.511Z,23.78
2022-08-20T06:45:15.799Z,24.02
2022-08-20T06:50:25.040Z,24.29
2022-08-20T06:55:30.703Z,24.62
2022-08-20T07:00:36.455Z,25.02
2022-08-20T07:05:45.602Z,25.44
2022-08-20T07:10:49.843Z,25.78
2022-08-20T07:15:54.258Z,26.35
2022-08-20T07:21:00.361Z,26.76
2022-08-20T07:26:04.599Z,27.15
2022-08-20T07:31:26.938Z,27.48
2022-08-20T07:36:33.394Z,27.86
2022-08-20T07:41:37.570Z,28.16
2022-08-20T07:46:41.684Z,28.57
2022-08-20T07:51:47.447Z,28.87
2022-08-20T07:56:51.400Z,29.04
2022-08-20T08:01:55.396Z,29.52
2022-08-20T08:07:01.446Z,29.60
2022-08-20T08:12:05.752Z,29.92
2022-08-20T08:17:11.559Z,30.11
2022-08-20T08:22:20.177Z,30.43
2022-08-20T08:27:24.243Z,30.82
2022-08-20T08:32:28.826Z,31.08
2022-08-20T08:37:34.457Z,30.98
2022-08-20T08:42:44.132Z,31.50
2022-08-20T08:47:48.197Z,31.80
2022-08-20T08:52:59.599Z,31.86
2022-08-20T08:58:16.887Z,32.06
2022-08-20T09:03:26.565Z,32.07
2022-08-20T09:08:37.238Z,32.61
2022-08-20T09:13:43.228Z,32.85
2022-08-20T09:18:47.172Z,32.72
2022-08-20T09:23:53.112Z,32.81
2022-08-20T09:28:57.484Z,32.64
2022-08-20T09:34:02.516Z,33.20
2022-08-20T09:39:07.911Z,33.32
2022-08-20T09:44:12.168Z,33.37
2022-08-20T09:49:20.167Z,32.94
2022-08-20T09:54:30.008Z,33.12
2022-08-20T09:59:35.704Z,33.17
2022-08-20T10:04:40.398Z,33.57
2022-08-20T10:09:46.862Z,34.16
2022-08-20T10:14:50.862Z,33.72
2022-08-20T10:19:55.320Z,34.40
2022-08-20T10:25:00.711Z,34.42
2022-08-20T10:30:07.111Z,33.82
2022-08-20T10:35:11.182Z,33.18
2022-08-20T10:40:17.005Z,33.79
2022-08-20T10:45:21.085Z,33.67
2022-08-20T10:50:25.476Z,33.93
2022-08-20T10:55:35.726Z,34.13
2022-08-20T11:00:40.226Z,34.37
2022-08-20T11:05:44.475Z,34.40
2022-08-20T11:10:50.402Z,34.45
2022-08-20T11:15:54.364Z,34.29
2022-08-20T11:20:58.800Z,34.56
2022-08-20T11:26:05.695Z,34.76
2022-08-20T11:31:09.653Z,35.13
2022-08-20T11:36:13.613Z,34.97
2022-08-20T11:41:19.089Z,34.99
2022-08-20T11:46:26.626Z,34.57
2022-08-20T11:51:34.648Z,34.10
2022-08-20T11:56:54.770Z,33.56
2022-08-20T12:02:03.259Z,33.47
2022-08-20T12:07:11.957Z,33.17
2022-08-20T12:12:19.394Z,32.75
2022-08-20T12:17:25.282Z,32.70
2022-08-20T12:22:30.182Z,32.88
2022-08-20T12:27:37.021Z,32.92
2022-08-20T12:32:42.349Z,32.69
2022-08-20T12:37:47.411Z,32.41
2022-08-20T12:42:52.921Z,32.30
2022-08-20T12:48:06.144Z,32.18
2022-08-20T12:53:11.134Z,32.10
2022-08-20T12:58:16.631Z,32.08
2022-08-20T13:03:22.133Z,31.72
2022-08-20T13:08:26.394Z,31.75
2022-08-20T13:13:32.235Z,31.59
2022-08-20T13:18:36.265Z,31.53
2022-08-20T13:23:40.324Z,31.47
2022-08-20T13:28:48.707Z,31.40
2022-08-20T13:33:54.916Z,31.02
2022-08-20T13:38:58.865Z,31.01
2022-08-20T13:44:04.761Z,30.92
2022-08-20T13:49:08.769Z,31.11
2022-08-20T13:54:12.855Z,31.16
2022-08-20T13:59:18.403Z,30.92
2022-08-20T14:04:22.599Z,30.73
2022-08-20T14:09:26.694Z,30.50
2022-08-20T14:14:32.148Z,30.34
2022-08-20T14:19:39.012Z,30.09
2022-08-20T14:24:43.168Z,30.03
2022-08-20T14:29:50.047Z,29.91
2022-08-20T14:34:54.865Z,29.74
2022-08-20T14:40:01.183Z,29.68
2022-08-20T14:45:08.947Z,29.61
2022-08-20T14:50:16.495Z,29.26
2022-08-20T14:55:23.293Z,29.10
2022-08-20T15:00:33.913Z,28.91
2022-08-20T15:05:39.740Z,28.63
2022-08-20T15:10:44.632Z,28.35
2022-08-20T15:15:50.225Z,28.23
2022-08-20T15:20:54.825Z,28.14
2022-08-20T15:25:58.866Z,28.04
2022-08-20T15:31:10.897Z,27.54
2022-08-20T15:36:15.020Z,27.44
2022-08-20T15:41:19.137Z,27.44
2022-08-20T15:46:30.266Z,27.40
2022-08-20T15:51:44.460Z,27.30
2022-08-20T15:56:59.405Z,27.43
2022-08-20T16:02:20.657Z,27.31
2022-08-20T16:07:35.385Z,27.14
2022-08-20T16:12:41.688Z,27.11
2022-08-20T16:17:52.779Z,26.95
2022-08-20T16:22:57.710Z,26.69
2022-08-20T16:28:06.584Z,26.72
2022-08-20T16:33:21.596Z,26.67
2022-08-20T16:38:39.940Z,26.58
2022-08-20T16:43:54.374Z,26.43
2022-08-20T16:49:05.726Z,26.56
2022-08-20T16:54:11.182Z,26.37
2022-08-20T16:59:18.459Z,26.24
2022-08-20T17:04:33.092Z,26.00
2022-08-20T17:09:43.521Z,25.80
2022-08-20T17:14:50.980Z,25.67
2022-08-20T17:20:00.946Z,25.64
2022-08-20T17:25:15.030Z,24.87
2022-08-20T17:30:24.817Z,24.52
2022-08-20T17:35:34.350Z,23.71
2022-08-20T17:40:45.990Z,23.21
2022-08-20T17:45:50.986Z,22.75
2022-08-20T17:50:56.716Z,22.87
2022-08-20T17:56:04.288Z,22.74
2022-08-20T18:01:11.705Z,21.69
2022-08-20T18:06:30.629Z,22.22
2022-08-20T18:11:43.906Z,22.02
2022-08-20T18:17:03.162Z,21.69
2022-08-20T18:22:11.974Z,21.16
2022-08-20T18:27:18.872Z,21.35
2022-08-20T18:32:34.195Z,20.92
2022-08-20T18:37:40.346Z,21.10
2022-08-20T18:42:45.776Z,21.42
2022-08-20T18:47:49.816Z,21.49
2022-08-20T18:53:10.366Z,21.01
2022-08-20T18:58:16.617Z,20.68
2022-08-20T19:03:26.430Z,20.69
2022-08-20T19:08:44.074Z,20.55
2022-08-20T19:14:09.700Z,20.49
2022-08-20T19:19:16.686Z,20.45
2022-08-20T19:24:28.488Z,20.37
2022-08-20T19:29:37.187Z,20.36
2022-08-20T19:34:41.423Z,20.20
2022-08-20T19:39:46.941Z,19.95
2022-08-20T19:44:55.639Z,19.82
2022-08-20T19:50:09.891Z,19.75
2022-08-20T19:55:23.213Z,19.75
2022-08-20T20:00:29.810Z,19.61
2022-08-20T20:05:33.964Z,19.33
2022-08-20T20:10:40.247Z,19.18
2022-08-20T20:15:45.300Z,19.09
2022-08-20T20:20:57.427Z,19.15
2022-08-20T20:26:06.712Z,19.12
2022-08-20T20:31:13.933Z,19.08
2022-08-20T20:36:32.042Z,18.95
2022-08-20T20:41:38.297Z,19.16
2022-08-20T20:46:42.314Z,19.20
2022-08-20T20:51:55.777Z,19.59
2022-08-20T20:57:04.560Z,19.17
2022-08-20T21:02:08.832Z,19.48
2022-08-20T21:07:16.005Z,19.75
2022-08-20T21:12:22.368Z,19.78
2022-08-20T21:17:26.434Z,20.04
2022-08-20T21:22:30.605Z,19.75
2022-08-20T21:27:37.441Z,19.89
2022-08-20T21:32:41.625Z,19.55
2022-08-20T21:37:45.648Z,19.06
2022-08-20T21:42:51.287Z,18.85
2022-08-20T21:47:55.643Z,18.67
2022-08-20T21:53:00.239Z,18.87
2022-08-20T21:58:06.158Z,19.21
2022-08-20T22:03:10.289Z,19.29
2022-08-20T22:08:18.448Z,19.25
2022-08-20T22:13:24.933Z,18.96
2022-08-20T22:18:29.011Z,18.96
2022-08-20T22:23:33.055Z,19.15
2022-08-20T22:28:39.073Z,19.07
2022-08-20T22:33:43.804Z,19.55
2022-08-20T22:38:47.894Z,19.77
2022-08-20T22:44:00.174Z,19.64
2022-08-20T22:49:05.788Z,19.80
2022-08-20T22:54:12.585Z,19.85
2022-08-20T22:59:17.984Z,19.86
2022-08-20T23:04:26.818Z,19.66
2022-08-20T23:09:31.381Z,19.51
2022-08-20T23:14:36.884Z,19.55
2022-08-20T23:19:41.960Z,19.52
2022-08-20T23:24:46.381Z,19.73
2022-08-20T23:29:52.176Z,19.61
2022-08-20T23:34:56.149Z,19.49
2022-08-20T23:40:00.378Z,19.63
2022-08-20T23:45:07.338Z,19.65
2022-08-20T23:50:14.340Z,19.40
2022-08-20T23:55:18.672Z,19.43
